createdAt,value
2018-09-08T00:00:05.655Z,70.80
2018-09-08T00:01:05.884Z,69.58
2018-09-08T00:02:06.117Z,71.53
2018-09-08T00:03:06.338Z,75.20
2018-09-08T00:04:06.565Z,71.29
2018-09-08T00:05:06.796Z,72.51
2018-09-08T00:06:07.021Z,72.75
2018-09-08T00:07:07.253Z,73.73
2018-09-08T00:08:07.479Z,71.78
2018-09-08T00:09:07.710Z,68.85
2018-09-08T00:10:07.936Z,71.04
2018-09-08T00:11:08.158Z,71.29
2018-09-08T00:12:08.385Z,72.75
2018-09-08T00:13:08.615Z,71.53
2018-09-08T00:14:08.849Z,71.78
2018-09-08T00:15:09.076Z,70.31
2018-09-08T00:16:09.317Z,69.34
2018-09-08T00:17:09.535Z,68.12
2018-09-08T00:18:09.762Z,69.09
2018-09-08T00:19:10.008Z,71.29
2018-09-08T00:20:10.218Z,70.56
2018-09-08T00:21:10.444Z,67.87
2018-09-08T00:22:10.673Z,66.41
2018-09-08T00:23:10.897Z,68.85
2018-09-08T00:24:11.125Z,71.29
2018-09-08T00:25:11.351Z,71.53
2018-09-08T00:26:11.577Z,70.07
2018-09-08T00:27:11.806Z,68.36
2018-09-08T00:28:12.031Z,67.63
2018-09-08T00:29:12.259Z,75.93
2018-09-08T00:30:12.485Z,70.80
2018-09-08T00:31:12.714Z,70.80
2018-09-08T00:32:12.939Z,70.56
2018-09-08T00:33:13.165Z,68.85
2018-09-08T00:34:13.390Z,68.12
2018-09-08T00:35:13.624Z,70.80
2018-09-08T00:36:13.839Z,71.53
2018-09-08T00:37:14.079Z,71.53
2018-09-08T00:38:14.301Z,74.46
2018-09-08T00:39:14.532Z,68.12
2018-09-08T00:40:14.763Z,68.60
2018-09-08T00:41:14.989Z,72.02
2018-09-08T00:42:15.213Z,75.44
2018-09-08T00:43:15.440Z,73.97
2018-09-08T00:44:15.669Z,70.07
2018-09-08T00:45:15.897Z,73.24
2018-09-08T00:46:16.120Z,68.85
2018-09-08T00:47:16.347Z,69.34
2018-09-08T00:48:16.582Z,68.36
2018-09-08T00:49:16.803Z,64.94
2018-09-08T00:50:17.032Z,66.65
2018-09-08T00:51:17.257Z,69.58
2018-09-08T00:52:17.484Z,67.14
2018-09-08T00:53:17.712Z,71.29
2018-09-08T00:54:17.940Z,67.87
2018-09-08T00:55:18.163Z,68.60
2018-09-08T00:56:18.391Z,67.87
2018-09-08T00:57:18.619Z,69.82
2018-09-08T00:58:18.850Z,67.63
2018-09-08T00:59:19.072Z,73.00
2018-09-08T01:00:19.300Z,64.70
2018-09-08T01:01:19.525Z,66.16
2018-09-08T01:02:19.753Z,63.72
2018-09-08T01:03:19.978Z,63.96
2018-09-08T01:04:20.206Z,62.74
2018-09-08T01:05:20.434Z,64.45
2018-09-08T01:06:20.661Z,62.99
2018-09-08T01:07:20.888Z,65.43
2018-09-08T01:08:21.114Z,61.77
2018-09-08T01:09:21.340Z,60.06
2018-09-08T01:10:21.570Z,62.99
2018-09-08T01:11:21.795Z,62.99
2018-09-08T01:12:22.023Z,63.96
2018-09-08T01:13:22.249Z,64.94
2018-09-08T01:14:22.479Z,64.94
2018-09-08T01:15:22.705Z,65.67
2018-09-08T01:16:22.931Z,70.31
2018-09-08T01:17:23.162Z,66.41
2018-09-08T01:18:23.385Z,69.82
2018-09-08T01:19:23.612Z,65.92
2018-09-08T01:20:23.837Z,66.41
2018-09-08T01:21:24.071Z,63.48
2018-09-08T01:22:24.302Z,65.19
2018-09-08T01:23:24.523Z,65.19
2018-09-08T01:24:24.753Z,65.19
2018-09-08T01:25:24.979Z,66.65
2018-09-08T01:26:25.207Z,65.67
2018-09-08T01:27:25.433Z,66.41
2018-09-08T01:28:25.656Z,61.77
2018-09-08T01:29:25.881Z,60.79
2018-09-08T01:30:26.108Z,60.55
2018-09-08T01:31:26.335Z,64.21
2018-09-08T01:32:26.563Z,64.94
2018-09-08T01:33:26.793Z,63.96
2018-09-08T01:34:27.019Z,63.48
2018-09-08T01:35:27.244Z,65.19
2018-09-08T01:36:27.474Z,63.23
2018-09-08T01:37:27.702Z,63.72
2018-09-08T01:38:27.931Z,61.52
2018-09-08T01:39:28.153Z,67.38
2018-09-08T01:40:28.380Z,62.99
2018-09-08T01:41:28.607Z,62.74
2018-09-08T01:42:28.831Z,61.28
2018-09-08T01:43:29.057Z,65.67
2018-09-08T01:44:29.280Z,62.50
2018-09-08T01:45:29.508Z,64.94
2018-09-08T01:46:29.735Z,68.36
2018-09-08T01:47:29.961Z,67.38
2018-09-08T01:48:30.187Z,67.38
2018-09-08T01:49:30.412Z,61.52
2018-09-08T01:50:30.653Z,62.50
2018-09-08T01:51:30.878Z,65.92
2018-09-08T01:52:31.105Z,64.45
2018-09-08T01:53:31.332Z,63.23
2018-09-08T01:54:31.560Z,65.67
2018-09-08T01:55:31.785Z,64.21
2018-09-08T01:56:32.013Z,61.77
2018-09-08T01:57:32.278Z,64.70
2018-09-08T01:58:32.465Z,66.89
2018-09-08T01:59:32.688Z,62.74
2018-09-08T02:00:32.921Z,60.79
2018-09-08T02:01:33.143Z,64.21
2018-09-08T02:02:33.372Z,63.48
2018-09-08T02:03:33.596Z,62.99
2018-09-08T02:04:33.825Z,63.96
2018-09-08T02:05:34.051Z,62.26
2018-09-08T02:06:34.279Z,62.99
2018-09-08T02:07:34.505Z,61.04
2018-09-08T02:08:34.734Z,69.09
2018-09-08T02:09:34.953Z,62.50
2018-09-08T02:10:35.180Z,64.94
2018-09-08T02:11:35.412Z,64.70
2018-09-08T02:12:35.633Z,62.99
2018-09-08T02:13:35.858Z,64.45
2018-09-08T02:14:36.087Z,66.41
2018-09-08T02:15:36.316Z,63.48
2018-09-08T02:16:36.537Z,61.52
2018-09-08T02:17:36.763Z,64.70
2018-09-08T02:18:37.004Z,66.89
2018-09-08T02:19:37.230Z,62.01
2018-09-08T02:20:37.469Z,64.70
2018-09-08T02:21:37.681Z,65.67
2018-09-08T02:22:37.907Z,64.45
2018-09-08T02:23:38.130Z,63.72
2018-09-08T02:24:38.361Z,64.21
2018-09-08T02:25:38.587Z,62.50
2018-09-08T02:26:38.810Z,65.43
2018-09-08T02:27:39.039Z,62.50
2018-09-08T02:28:39.265Z,62.50
2018-09-08T02:29:39.494Z,64.70
2018-09-08T02:30:39.714Z,62.01
2018-09-08T02:31:39.941Z,63.96
2018-09-08T02:32:40.169Z,68.60
2018-09-08T02:33:40.396Z,64.94
2018-09-08T02:34:40.623Z,66.65
2018-09-08T02:35:40.857Z,64.21
2018-09-08T02:36:41.081Z,65.67
2018-09-08T02:37:41.302Z,64.70
2018-09-08T02:38:41.527Z,65.19
2018-09-08T02:39:41.753Z,60.79
2018-09-08T02:40:41.981Z,64.21
2018-09-08T02:41:42.208Z,60.06
2018-09-08T02:42:42.435Z,63.23
2018-09-08T02:43:42.660Z,63.23
2018-09-08T02:44:42.887Z,62.99
2018-09-08T02:45:43.111Z,60.06
2018-09-08T02:46:43.334Z,59.81
2018-09-08T02:47:43.561Z,60.06
2018-09-08T02:48:43.790Z,63.72
2018-09-08T02:49:44.016Z,62.74
2018-09-08T02:50:44.243Z,68.36
2018-09-08T02:51:44.469Z,63.72
2018-09-08T02:52:44.695Z,61.77
2018-09-08T02:53:44.921Z,64.94
2018-09-08T02:54:45.146Z,64.45
2018-09-08T02:55:45.373Z,61.04
2018-09-08T02:56:45.600Z,62.74
2018-09-08T02:57:45.826Z,65.67
2018-09-08T02:58:46.053Z,61.28
2018-09-08T02:59:46.280Z,59.33
2018-09-08T03:00:46.518Z,63.96
2018-09-08T03:01:46.721Z,61.52
2018-09-08T03:02:46.954Z,70.80
2018-09-08T03:03:47.181Z,64.21
2018-09-08T03:04:47.407Z,62.01
2018-09-08T03:05:47.634Z,62.26
2018-09-08T03:06:47.857Z,59.08
2018-09-08T03:07:48.086Z,64.70
2018-09-08T03:08:48.310Z,62.74
2018-09-08T03:09:48.538Z,61.28
2018-09-08T03:10:48.764Z,63.72
2018-09-08T03:11:48.993Z,61.52
2018-09-08T03:12:49.216Z,61.52
2018-09-08T03:13:49.442Z,61.28
2018-09-08T03:14:49.668Z,63.23
2018-09-08T03:15:49.898Z,65.19
2018-09-08T03:16:50.125Z,66.16
2018-09-08T03:17:50.340Z,61.04
2018-09-08T03:18:50.567Z,63.48
2018-09-08T03:19:50.794Z,63.72
2018-09-08T03:20:51.020Z,63.72
2018-09-08T03:21:51.246Z,62.50
2018-09-08T03:22:51.472Z,62.99
2018-09-08T03:23:51.693Z,63.48
2018-09-08T03:24:51.918Z,60.30
2018-09-08T03:25:52.154Z,64.21
2018-09-08T03:26:52.371Z,59.81
2018-09-08T03:27:52.601Z,59.81
2018-09-08T03:28:52.824Z,60.06
2018-09-08T03:29:53.051Z,62.99
2018-09-08T03:30:53.276Z,64.45
2018-09-08T03:31:53.504Z,63.48
2018-09-08T03:32:53.731Z,64.70
2018-09-08T03:33:53.959Z,62.01
2018-09-08T03:34:54.186Z,65.19
2018-09-08T03:35:54.412Z,60.06
2018-09-08T03:36:54.639Z,60.79
2018-09-08T03:37:54.869Z,65.19
2018-09-08T03:38:55.091Z,65.43
2018-09-08T03:39:55.318Z,65.92
2018-09-08T03:40:55.537Z,62.01
2018-09-08T03:41:55.755Z,63.96
2018-09-08T03:42:55.987Z,66.65
2018-09-08T03:43:56.229Z,63.23
2018-09-08T03:44:56.464Z,62.50
2018-09-08T03:45:56.689Z,60.55
2018-09-08T03:46:56.917Z,63.96
2018-09-08T03:47:57.143Z,65.67
2018-09-08T03:48:57.367Z,63.96
2018-09-08T03:49:57.597Z,67.87
2018-09-08T03:50:57.823Z,65.43
2018-09-08T03:51:58.049Z,63.48
2018-09-08T03:52:58.277Z,64.45
2018-09-08T03:53:58.504Z,65.19
2018-09-08T03:54:58.730Z,63.23
2018-09-08T03:55:58.962Z,64.70
2018-09-08T03:56:59.177Z,69.34
2018-09-08T03:57:59.407Z,65.67
2018-09-08T03:58:59.677Z,67.14
2018-09-08T03:59:59.866Z,66.65
2018-09-08T04:01:00.087Z,65.92
2018-09-08T04:02:00.314Z,62.99
2018-09-08T04:03:00.541Z,65.43
2018-09-08T04:04:00.771Z,62.01
2018-09-08T04:05:00.993Z,62.50
2018-09-08T04:06:01.229Z,63.96
2018-09-08T04:07:01.454Z,63.96
2018-09-08T04:08:01.678Z,62.99
2018-09-08T04:09:01.902Z,64.45
2018-09-08T04:10:02.127Z,63.23
2018-09-08T04:11:02.353Z,67.87
2018-09-08T04:12:02.579Z,66.16
2018-09-08T04:13:02.808Z,68.85
2018-09-08T04:14:03.032Z,70.07
2018-09-08T04:15:03.258Z,68.12
2018-09-08T04:16:03.485Z,63.48
2018-09-08T04:17:03.713Z,63.23
2018-09-08T04:18:03.952Z,62.50
2018-09-08T04:19:04.163Z,64.94
2018-09-08T04:20:04.392Z,65.43
2018-09-08T04:21:04.615Z,66.16
2018-09-08T04:22:04.845Z,65.92
2018-09-08T04:23:05.069Z,65.67
2018-09-08T04:24:05.340Z,62.99
2018-09-08T04:25:05.527Z,64.45
2018-09-08T04:26:05.751Z,61.77
2018-09-08T04:27:05.973Z,60.30
2018-09-08T04:28:06.201Z,63.96
2018-09-08T04:29:06.427Z,64.70
2018-09-08T04:30:06.656Z,66.89
2018-09-08T04:31:06.884Z,67.14
2018-09-08T04:32:07.110Z,63.48
2018-09-08T04:33:07.336Z,64.21
2018-09-08T04:34:07.573Z,64.70
2018-09-08T04:35:07.785Z,66.16
2018-09-08T04:36:08.012Z,65.43
2018-09-08T04:37:08.239Z,63.72
2018-09-08T04:38:08.466Z,63.96
2018-09-08T04:39:08.693Z,68.12
2018-09-08T04:40:08.918Z,66.65
2018-09-08T04:41:09.147Z,69.34
2018-09-08T04:42:09.371Z,65.43
2018-09-08T04:43:09.596Z,64.70
2018-09-08T04:44:09.824Z,63.48
2018-09-08T04:45:10.050Z,70.80
2018-09-08T04:46:10.277Z,66.16
2018-09-08T04:47:10.504Z,69.82
2018-09-08T04:48:10.730Z,68.60
2018-09-08T04:49:11.007Z,64.70
2018-09-08T04:50:11.184Z,65.92
2018-09-08T04:51:11.414Z,65.67
2018-09-08T04:52:11.638Z,65.67
2018-09-08T04:53:11.866Z,68.12
2018-09-08T04:54:12.088Z,69.09
2018-09-08T04:55:12.314Z,68.36
2018-09-08T04:56:12.537Z,66.89
2018-09-08T04:57:12.764Z,65.67
2018-09-08T04:58:12.992Z,65.43
2018-09-08T04:59:13.215Z,67.14
2018-09-08T05:00:13.445Z,61.28
2018-09-08T05:01:13.670Z,64.21
2018-09-08T05:02:13.896Z,63.48
2018-09-08T05:03:14.120Z,63.72
2018-09-08T05:04:14.348Z,64.94
2018-09-08T05:05:14.573Z,64.70
2018-09-08T05:06:14.799Z,64.70
2018-09-08T05:07:15.022Z,66.65
2018-09-08T05:08:15.251Z,61.77
2018-09-08T05:09:15.481Z,62.01
2018-09-08T05:10:15.707Z,66.65
2018-09-08T05:11:15.933Z,69.09
2018-09-08T05:12:16.161Z,63.96
2018-09-08T05:13:16.391Z,66.16
2018-09-08T05:14:16.615Z,64.45
2018-09-08T05:15:16.844Z,64.21
2018-09-08T05:16:17.068Z,64.94
2018-09-08T05:17:17.382Z,69.34
2018-09-08T05:18:17.523Z,66.89
2018-09-08T05:19:17.747Z,66.89
2018-09-08T05:20:17.970Z,69.82
2018-09-08T05:21:18.200Z,68.85
2018-09-08T05:22:18.431Z,66.41
2018-09-08T05:23:18.659Z,69.34
2018-09-08T05:24:18.883Z,68.12
2018-09-08T05:25:19.109Z,66.65
2018-09-08T05:26:19.335Z,67.38
2018-09-08T05:27:19.563Z,67.63
2018-09-08T05:28:19.791Z,70.56
2018-09-08T05:29:20.016Z,68.85
2018-09-08T05:30:20.245Z,67.63
2018-09-08T05:31:20.469Z,66.65
2018-09-08T05:32:20.699Z,67.14
2018-09-08T05:33:20.926Z,67.14
2018-09-08T05:34:21.155Z,73.00
2018-09-08T05:35:21.380Z,64.70
2018-09-08T05:36:21.609Z,68.36
2018-09-08T05:37:21.833Z,67.14
2018-09-08T05:38:22.062Z,67.63
2018-09-08T05:39:22.286Z,66.89
2018-09-08T05:40:22.515Z,66.65
2018-09-08T05:41:22.742Z,66.41
2018-09-08T05:42:22.965Z,66.89
2018-09-08T05:43:23.193Z,68.12
2018-09-08T05:44:23.420Z,65.43
2018-09-08T05:45:23.646Z,69.09
2018-09-08T05:46:23.873Z,67.63
2018-09-08T05:47:24.095Z,69.09
2018-09-08T05:48:24.323Z,68.85
2018-09-08T05:49:24.547Z,71.04
2018-09-08T05:50:24.782Z,67.63
2018-09-08T05:51:25.005Z,66.16
2018-09-08T05:52:25.240Z,67.63
2018-09-08T05:53:25.465Z,66.89
2018-09-08T05:54:25.693Z,65.67
2018-09-08T05:55:25.931Z,65.67
2018-09-08T05:56:26.153Z,73.73
2018-09-08T05:57:26.380Z,72.75
2018-09-08T05:58:26.656Z,67.14
2018-09-08T05:59:26.833Z,69.09
2018-09-08T06:00:27.059Z,66.16
2018-09-08T06:01:27.287Z,70.31
2018-09-08T06:02:27.514Z,66.41
2018-09-08T06:03:27.747Z,69.34
2018-09-08T06:04:27.972Z,69.34
2018-09-08T06:05:28.198Z,66.16
2018-09-08T06:06:28.422Z,70.56
2018-09-08T06:07:28.649Z,66.65
2018-09-08T06:08:28.875Z,69.34
2018-09-08T06:09:29.108Z,70.31
2018-09-08T06:10:29.337Z,66.89
2018-09-08T06:11:29.561Z,66.65
2018-09-08T06:12:29.789Z,65.43
2018-09-08T06:13:30.016Z,70.31
2018-09-08T06:14:30.243Z,70.31
2018-09-08T06:15:30.471Z,67.87
2018-09-08T06:16:30.696Z,67.38
2018-09-08T06:17:30.979Z,72.02
2018-09-08T06:18:31.147Z,71.04
2018-09-08T06:19:31.392Z,65.19
2018-09-08T06:20:31.604Z,65.43
2018-09-08T06:21:31.829Z,65.43
2018-09-08T06:22:32.059Z,69.58
2018-09-08T06:23:32.286Z,68.36
2018-09-08T06:24:32.560Z,65.67
2018-09-08T06:25:32.792Z,66.65
2018-09-08T06:26:32.963Z,67.38
2018-09-08T06:27:33.188Z,64.21
2018-09-08T06:28:33.497Z,67.87
2018-09-08T06:29:33.656Z,67.87
2018-09-08T06:30:33.880Z,65.19
2018-09-08T06:31:34.136Z,65.92
2018-09-08T06:32:34.363Z,67.87
2018-09-08T06:33:34.592Z,68.60
2018-09-08T06:34:34.817Z,67.38
2018-09-08T06:35:35.067Z,67.38
2018-09-08T06:36:35.275Z,67.38
2018-09-08T06:37:35.500Z,70.56
2018-09-08T06:38:35.725Z,78.61
2018-09-08T06:39:35.956Z,68.60
2018-09-08T06:40:36.190Z,67.87
2018-09-08T06:41:36.412Z,69.09
2018-09-08T06:42:36.638Z,66.89
2018-09-08T06:43:36.868Z,67.14
2018-09-08T06:44:37.096Z,70.07
2018-09-08T06:45:37.323Z,67.87
2018-09-08T06:46:37.548Z,66.89
2018-09-08T06:47:37.778Z,66.89
2018-09-08T06:48:38.009Z,67.38
2018-09-08T06:49:38.241Z,67.38
2018-09-08T06:50:38.467Z,66.65
2018-09-08T06:51:38.692Z,63.96
2018-09-08T06:52:38.921Z,66.89
2018-09-08T06:53:39.160Z,64.70
2018-09-08T06:54:39.371Z,65.19
2018-09-08T06:55:39.599Z,65.67
2018-09-08T06:56:39.826Z,64.94
2018-09-08T06:57:40.055Z,70.07
2018-09-08T06:58:40.287Z,64.94
2018-09-08T06:59:40.512Z,68.85
2018-09-08T07:00:40.740Z,66.16
2018-09-08T07:01:40.971Z,64.70
2018-09-08T07:02:41.205Z,64.21
2018-09-08T07:03:41.428Z,83.25
2018-09-08T07:04:41.656Z,64.94
2018-09-08T07:05:41.883Z,64.70
2018-09-08T07:06:42.115Z,66.65
2018-09-08T07:07:42.335Z,63.96
2018-09-08T07:08:42.569Z,65.19
2018-09-08T07:09:42.791Z,65.43
2018-09-08T07:10:43.020Z,67.38
2018-09-08T07:11:43.250Z,68.36
2018-09-08T07:12:43.481Z,66.89
2018-09-08T07:13:43.708Z,64.45
2018-09-08T07:14:43.936Z,66.16
2018-09-08T07:15:44.164Z,66.65
2018-09-08T07:16:44.395Z,68.36
2018-09-08T07:17:44.626Z,69.09
2018-09-08T07:18:44.856Z,69.34
2018-09-08T07:19:45.082Z,70.31
2018-09-08T07:20:45.311Z,75.20
2018-09-08T07:21:45.540Z,68.36
2018-09-08T07:22:45.771Z,72.02
2018-09-08T07:23:45.997Z,66.89
2018-09-08T07:24:46.240Z,66.16
2018-09-08T07:25:46.453Z,65.43
2018-09-08T07:26:46.681Z,65.92
2018-09-08T07:27:46.909Z,65.19
2018-09-08T07:28:47.136Z,67.38
2018-09-08T07:29:47.365Z,69.34
2018-09-08T07:30:47.594Z,72.02
2018-09-08T07:31:47.822Z,73.73
2018-09-08T07:32:48.052Z,72.02
2018-09-08T07:33:48.279Z,69.58
2018-09-08T07:34:48.509Z,69.09
2018-09-08T07:35:48.736Z,69.82
2018-09-08T07:36:48.969Z,70.31
2018-09-08T07:37:49.193Z,67.63
2018-09-08T07:38:49.421Z,70.80
2018-09-08T07:39:49.653Z,64.70
2018-09-08T07:40:49.878Z,67.38
2018-09-08T07:41:50.108Z,66.41
2018-09-08T07:42:50.338Z,70.80
2018-09-08T07:43:50.569Z,68.85
2018-09-08T07:44:50.796Z,66.16
2018-09-08T07:45:51.063Z,72.51
2018-09-08T07:46:51.259Z,67.38
2018-09-08T07:47:51.486Z,69.34
2018-09-08T07:48:51.714Z,68.60
2018-09-08T07:49:51.953Z,69.58
2018-09-08T07:50:52.176Z,68.12
2018-09-08T07:51:52.414Z,71.04
2018-09-08T07:52:52.631Z,71.04
2018-09-08T07:53:52.913Z,69.09
2018-09-08T07:54:53.092Z,69.82
2018-09-08T07:55:53.329Z,69.58
2018-09-08T07:56:53.556Z,69.09
2018-09-08T07:57:53.793Z,70.56
2018-09-08T07:58:54.017Z,71.78
2018-09-08T07:59:54.248Z,70.31
2018-09-08T08:00:54.477Z,70.56
2018-09-08T08:01:54.705Z,67.14
2018-09-08T08:02:54.933Z,71.29
2018-09-08T08:03:55.163Z,72.75
2018-09-08T08:04:55.390Z,74.95
2018-09-08T08:05:55.622Z,69.58
2018-09-08T08:06:55.857Z,69.09
2018-09-08T08:07:56.078Z,70.56
2018-09-08T08:08:56.308Z,68.36
2018-09-08T08:09:56.535Z,68.12
2018-09-08T08:10:56.767Z,71.04
2018-09-08T08:11:57.034Z,71.04
2018-09-08T08:12:57.226Z,71.04
2018-09-08T08:13:57.457Z,73.49
2018-09-08T08:14:57.680Z,72.02
2018-09-08T08:15:57.909Z,68.85
2018-09-08T08:16:58.139Z,69.09
2018-09-08T08:17:58.368Z,72.02
2018-09-08T08:18:58.594Z,67.38
2018-09-08T08:19:58.823Z,73.24
2018-09-08T08:20:59.060Z,72.02
2018-09-08T08:21:59.289Z,72.02
2018-09-08T08:22:59.519Z,75.20
2018-09-08T08:23:59.756Z,72.75
2018-09-08T08:24:59.979Z,71.53
2018-09-08T08:26:00.212Z,69.34
2018-09-08T08:27:00.440Z,75.93
2018-09-08T08:28:00.672Z,83.01
2018-09-08T08:29:00.900Z,67.63
2018-09-08T08:30:01.141Z,68.60
2018-09-08T08:31:01.417Z,82.28
2018-09-08T08:32:01.629Z,76.17
2018-09-08T08:33:01.827Z,67.63
2018-09-08T08:34:02.063Z,70.07
2018-09-08T08:35:02.298Z,70.07
2018-09-08T08:36:02.537Z,69.58
2018-09-08T08:37:02.800Z,67.38
2018-09-08T08:38:03.011Z,68.85
2018-09-08T08:39:03.241Z,73.73
2018-09-08T08:40:03.463Z,67.38
2018-09-08T08:41:03.700Z,67.38
2018-09-08T08:42:03.934Z,69.58
2018-09-08T08:43:04.215Z,69.34
2018-09-08T08:44:04.402Z,69.82
2018-09-08T08:45:04.628Z,67.38
2018-09-08T08:46:04.858Z,69.58
2018-09-08T08:47:05.090Z,72.51
2018-09-08T08:48:05.323Z,71.53
2018-09-08T08:49:05.569Z,72.02
2018-09-08T08:50:05.795Z,73.00
2018-09-08T08:51:06.025Z,68.36
2018-09-08T08:52:06.254Z,66.41
2018-09-08T08:53:06.483Z,66.16
2018-09-08T08:54:06.719Z,69.82
2018-09-08T08:55:06.956Z,75.68
2018-09-08T08:56:07.185Z,76.42
2018-09-08T08:57:07.416Z,70.56
2018-09-08T08:58:07.646Z,70.56
2018-09-08T08:59:07.876Z,68.85
2018-09-08T09:00:08.108Z,72.27
2018-09-08T09:01:08.348Z,73.00
2018-09-08T09:02:08.579Z,73.73
2018-09-08T09:03:08.808Z,73.00
2018-09-08T09:04:09.046Z,71.78
2018-09-08T09:05:09.282Z,72.27
2018-09-08T09:06:09.517Z,74.95
2018-09-08T09:07:09.747Z,76.17
2018-09-08T09:08:09.979Z,70.07
2018-09-08T09:09:10.209Z,70.07
2018-09-08T09:10:10.439Z,69.58
2018-09-08T09:11:10.670Z,71.04
2018-09-08T09:12:10.898Z,69.09
2018-09-08T09:13:11.179Z,70.07
2018-09-08T09:14:11.364Z,68.60
2018-09-08T09:15:11.984Z,69.82
2018-09-08T09:16:11.831Z,70.07
2018-09-08T09:17:12.059Z,69.34
2018-09-08T09:18:12.292Z,67.63
2018-09-08T09:19:12.525Z,70.80
2018-09-08T09:20:12.753Z,67.87
2018-09-08T09:21:12.985Z,66.65
2018-09-08T09:22:13.213Z,68.60
2018-09-08T09:23:13.585Z,68.36
2018-09-08T09:24:13.685Z,72.27
2018-09-08T09:25:13.905Z,68.36
2018-09-08T09:26:14.135Z,68.85
2018-09-08T09:27:14.367Z,67.87
2018-09-08T09:28:14.598Z,63.23
2018-09-08T09:29:14.829Z,66.41
2018-09-08T09:30:15.061Z,68.60
2018-09-08T09:31:15.291Z,64.70
2018-09-08T09:32:15.517Z,64.45
2018-09-08T09:33:15.749Z,69.82
2018-09-08T09:34:15.982Z,62.50
2018-09-08T09:35:16.209Z,66.89
2018-09-08T09:36:16.438Z,67.87
2018-09-08T09:37:16.698Z,64.94
2018-09-08T09:38:16.900Z,62.99
2018-09-08T09:39:17.134Z,64.70
2018-09-08T09:40:17.370Z,65.43
2018-09-08T09:41:17.617Z,67.63
2018-09-08T09:42:17.848Z,64.70
2018-09-08T09:43:18.079Z,68.12
2018-09-08T09:44:18.415Z,68.85
2018-09-08T09:45:18.557Z,66.89
2018-09-08T09:46:18.813Z,64.21
2018-09-08T09:47:19.046Z,75.93
2018-09-08T09:48:19.278Z,69.58
2018-09-08T09:49:19.514Z,64.45
2018-09-08T09:50:19.744Z,65.43
2018-09-08T09:51:19.978Z,67.63
2018-09-08T09:52:20.208Z,71.04
2018-09-08T09:53:20.443Z,68.85
2018-09-08T09:54:20.673Z,67.63
2018-09-08T09:55:20.912Z,66.65
2018-09-08T09:56:21.255Z,69.82
2018-09-08T09:57:21.379Z,62.74
2018-09-08T09:58:21.609Z,65.67
2018-09-08T09:59:21.841Z,68.60
2018-09-08T10:00:22.081Z,63.96
2018-09-08T10:01:22.307Z,63.96
2018-09-08T10:02:22.538Z,64.70
2018-09-08T10:03:22.768Z,65.43
2018-09-08T10:04:23.010Z,74.46
2018-09-08T10:05:23.237Z,65.67
2018-09-08T10:06:23.487Z,67.63
2018-09-08T10:07:23.699Z,67.87
2018-09-08T10:08:23.930Z,65.43
2018-09-08T10:09:24.163Z,66.41
2018-09-08T10:10:24.393Z,66.89
2018-09-08T10:11:24.622Z,64.94
2018-09-08T10:12:24.852Z,65.43
2018-09-08T10:13:25.099Z,63.96
2018-09-08T10:14:25.327Z,63.96
2018-09-08T10:15:25.552Z,62.74
2018-09-08T10:16:25.790Z,62.74
2018-09-08T10:17:26.020Z,65.43
2018-09-08T10:18:26.250Z,62.74
2018-09-08T10:19:26.491Z,68.85
2018-09-08T10:20:26.710Z,65.92
2018-09-08T10:21:26.943Z,61.28
2018-09-08T10:22:27.173Z,65.92
2018-09-08T10:23:27.409Z,62.50
2018-09-08T10:24:27.636Z,63.96
2018-09-08T10:25:27.905Z,62.26
2018-09-08T10:26:28.168Z,62.74
2018-09-08T10:27:28.340Z,62.01
2018-09-08T10:28:28.953Z,62.26
2018-09-08T10:29:28.811Z,63.23
2018-09-08T10:30:29.092Z,60.55
2018-09-08T10:31:29.269Z,63.48
2018-09-08T10:32:29.500Z,64.70
2018-09-08T10:33:29.731Z,64.70
2018-09-08T10:34:29.961Z,61.52
2018-09-08T10:35:30.193Z,62.99
2018-09-08T10:36:30.424Z,64.21
2018-09-08T10:37:30.656Z,64.70
2018-09-08T10:38:30.887Z,64.45
2018-09-08T10:39:31.122Z,64.45
2018-09-08T10:40:31.358Z,65.43
2018-09-08T10:41:31.586Z,64.70
2018-09-08T10:42:31.823Z,62.50
2018-09-08T10:43:32.046Z,65.92
2018-09-08T10:44:32.285Z,64.70
2018-09-08T10:45:32.516Z,63.48
2018-09-08T10:46:32.746Z,62.01
2018-09-08T10:47:32.979Z,63.23
2018-09-08T10:48:33.208Z,64.45
2018-09-08T10:49:33.440Z,62.74
2018-09-08T10:50:33.674Z,59.33
2018-09-08T10:51:33.905Z,62.50
2018-09-08T10:52:34.142Z,61.28
2018-09-08T10:53:34.373Z,60.55
2018-09-08T10:54:34.611Z,62.50
2018-09-08T10:55:34.839Z,64.45
2018-09-08T10:56:35.069Z,65.67
2018-09-08T10:57:35.305Z,64.94
2018-09-08T10:58:35.536Z,65.43
2018-09-08T10:59:35.785Z,66.65
2018-09-08T11:00:36.017Z,62.01
2018-09-08T11:01:36.266Z,62.50
2018-09-08T11:02:36.640Z,62.74
2018-09-08T11:03:36.715Z,65.67
2018-09-08T11:04:36.946Z,68.36
2018-09-08T11:05:37.178Z,64.94
2018-09-08T11:06:37.413Z,64.21
2018-09-08T11:07:37.652Z,64.21
2018-09-08T11:08:37.890Z,62.99
2018-09-08T11:09:38.112Z,63.48
2018-09-08T11:10:38.351Z,61.04
2018-09-08T11:11:38.581Z,67.87
2018-09-08T11:12:38.823Z,65.92
2018-09-08T11:13:39.057Z,66.16
2018-09-08T11:14:39.287Z,63.72
2018-09-08T11:15:39.522Z,64.21
2018-09-08T11:16:39.757Z,62.99
2018-09-08T11:17:39.990Z,66.16
2018-09-08T11:18:40.232Z,62.99
2018-09-08T11:19:40.450Z,64.94
2018-09-08T11:20:40.685Z,62.99
2018-09-08T11:21:40.916Z,62.26
2018-09-08T11:22:41.154Z,63.96
2018-09-08T11:23:41.387Z,67.63
2018-09-08T11:24:41.619Z,62.74
2018-09-08T11:25:41.854Z,61.77
2018-09-08T11:26:42.089Z,63.72
2018-09-08T11:27:42.320Z,73.00
2018-09-08T11:28:42.555Z,75.20
2018-09-08T11:29:42.788Z,63.96
2018-09-08T11:30:43.050Z,63.72
2018-09-08T11:31:43.253Z,59.57
2018-09-08T11:32:43.488Z,61.28
2018-09-08T11:33:43.718Z,63.72
2018-09-08T11:34:43.951Z,63.72
2018-09-08T11:35:44.184Z,62.26
2018-09-08T11:36:44.414Z,61.28
2018-09-08T11:37:44.648Z,62.74
2018-09-08T11:38:44.881Z,63.48
2018-09-08T11:39:45.116Z,73.24
2018-09-08T11:40:45.348Z,65.43
2018-09-08T11:41:45.587Z,60.79
2018-09-08T11:42:45.818Z,68.60
2018-09-08T11:43:46.049Z,60.06
2018-09-08T11:44:46.296Z,63.48
2018-09-08T11:45:46.525Z,61.28
2018-09-08T11:46:46.756Z,62.50
2018-09-08T11:47:46.975Z,62.99
2018-09-08T11:48:47.224Z,63.72
2018-09-08T11:49:47.455Z,63.72
2018-09-08T11:50:47.703Z,62.01
2018-09-08T11:51:47.924Z,73.49
2018-09-08T11:52:48.171Z,66.65
2018-09-08T11:53:48.399Z,62.99
2018-09-08T11:54:48.633Z,63.96
2018-09-08T11:55:48.865Z,64.21
2018-09-08T11:56:49.099Z,60.30
2018-09-08T11:57:49.332Z,61.04
2018-09-08T11:58:49.564Z,63.23
2018-09-08T11:59:49.795Z,61.52
2018-09-08T12:00:50.026Z,62.99
2018-09-08T12:01:50.264Z,62.01
2018-09-08T12:02:50.500Z,62.99
2018-09-08T12:03:50.736Z,61.04
2018-09-08T12:04:50.974Z,62.50
2018-09-08T12:05:51.203Z,62.50
2018-09-08T12:06:51.440Z,62.01
2018-09-08T12:07:51.669Z,63.23
2018-09-08T12:08:51.911Z,66.65
2018-09-08T12:09:52.137Z,63.48
2018-09-08T12:10:52.373Z,66.65
2018-09-08T12:11:52.607Z,65.19
2018-09-08T12:12:52.835Z,65.43
2018-09-08T12:13:53.107Z,63.23
2018-09-08T12:14:53.304Z,60.55
2018-09-08T12:15:53.534Z,61.04
2018-09-08T12:16:53.767Z,62.99
2018-09-08T12:17:54.001Z,63.23
2018-09-08T12:18:54.232Z,62.50
2018-09-08T12:19:54.468Z,64.94
2018-09-08T12:20:54.698Z,66.41
2018-09-08T12:21:54.933Z,60.30
2018-09-08T12:22:55.163Z,58.35
2018-09-08T12:23:55.397Z,61.04
2018-09-08T12:24:55.628Z,61.52
2018-09-08T12:25:55.861Z,64.94
2018-09-08T12:26:56.099Z,64.70
2018-09-08T12:27:56.328Z,66.16
2018-09-08T12:28:56.558Z,63.48
2018-09-08T12:29:56.797Z,68.36
2018-09-08T12:30:57.087Z,63.96
2018-09-08T12:31:57.256Z,73.24
2018-09-08T12:32:57.489Z,65.43
2018-09-08T12:33:57.725Z,68.60
2018-09-08T12:34:57.956Z,64.45
2018-09-08T12:35:58.187Z,64.45
2018-09-08T12:36:58.432Z,62.01
2018-09-08T12:37:58.649Z,67.63
2018-09-08T12:38:59.020Z,61.04
2018-09-08T12:39:59.119Z,59.57
2018-09-08T12:40:59.351Z,62.01
2018-09-08T12:41:59.582Z,68.60
2018-09-08T12:42:59.814Z,61.77
2018-09-08T12:44:00.047Z,63.72
2018-09-08T12:45:00.282Z,65.43
2018-09-08T12:46:00.559Z,68.60
2018-09-08T12:47:00.748Z,64.21
2018-09-08T12:48:00.981Z,61.04
2018-09-08T12:49:01.228Z,69.34
2018-09-08T12:50:01.455Z,61.77
2018-09-08T12:51:01.688Z,64.21
2018-09-08T12:52:01.920Z,62.01
2018-09-08T12:53:02.151Z,60.79
2018-09-08T12:54:02.388Z,61.52
2018-09-08T12:55:02.616Z,61.28